Aérodrome :
LOGIN :

S'inscrire | Disclaimer

   EN    FR    IT 

 










Légende :    VFR   VFR Marginal   IFR   IFR Intensif   IFR Très Intensif
Visi : 
Plafond : 
>= 8 km
>= 3000ft
5 à 8 km
1000 à 3000 ft
1500m à 5 km
500 à 1000 ft
800 à 1500m
200 à 500 ft
< 800m
< 200 ft
Symboles :   Orages  Brouillard  Fortes neiges  Fortes précipitations  Vent > 20 kt
SIGMETs :   Divers  Orages  Givrage  Turbulence  Onde Orograph.  Cendres Volcan.







- Altitude de l'aérodrome : 616 ft
- Code IATA : PUF
- Voir les cartes d'approche


LFBP - Pau

DERNIER METAR :
  • 211400Z AUTO VRB02KT CAVOK 15/M00 Q1028 NOSIG

METARs EXPIRÉS :
  • 211330Z AUTO 05003KT 330V140 CAVOK 15/00 Q1028 NOSIG
  • 211300Z AUTO VRB04KT CAVOK 15/00 Q1028 NOSIG
  • 211230Z AUTO 36004KT 280V080 CAVOK 14/02 Q1029 NOSIG
  • 211200Z AUTO 30004KT 230V010 CAVOK 14/03 Q1029 NOSIG
  • 211130Z AUTO 27004KT 170V340 CAVOK 13/02 Q1029 NOSIG

TAF TAF LFBP
Valide du 21 à 12h jusqu'au 22 à 12h UTC


211100Z 2112/2212 VRB03KT CAVOK
TEMPO 2112/2118 35005KT
Pas de NOTAMs connus pour ce terrain.



MET'MAP, la Météo Aéronautique d'un coup d'oeil ! - Copyright ORBIFLY Décembre 2007 - Disclaimer

ORBIFLY MET'MAP TEAM :

Programmation & Développement : Alexandra Zaïnal
Conception & Développement : Baudouin d'Aumeries
Co-Programmation & Développement : Marc-Olivier Méhu
Soutien technique & logistique : Manuel Goepfert

Contact : metmap@orbifly.com




SOURCES & CREDITS :

   NOAA